sensor_id;sensor_type;location;lat;lon;timestamp;P1;durP1;ratioP1;P2;durP2;ratioP2
36745;SDS011;22715;52.182;21.206;2022-10-31T00:46:19;28.40;;;20.70;;
36745;SDS011;22715;52.182;21.206;2022-10-31T00:51:23;27.92;;;18.05;;
36745;SDS011;22715;52.182;21.206;2022-10-31T01:44:54;21.10;;;13.43;;
36745;SDS011;22715;52.182;21.206;2022-10-31T01:50:41;37.40;;;12.68;;
36745;SDS011;22715;52.182;21.206;2022-10-31T01:55:39;21.77;;;13.45;;
36745;SDS011;22715;52.182;21.206;2022-10-31T02:04:03;18.00;;;12.73;;
36745;SDS011;22715;52.182;21.206;2022-10-31T02:09:21;19.65;;;13.25;;
36745;SDS011;22715;52.182;21.206;2022-10-31T02:12:02;20.35;;;14.32;;
36745;SDS011;22715;52.182;21.206;2022-10-31T02:14:39;19.63;;;12.48;;
36745;SDS011;22715;52.182;21.206;2022-10-31T02:17:18;21.10;;;12.52;;
36745;SDS011;22715;52.182;21.206;2022-10-31T02:36:15;16.65;;;11.85;;
36745;SDS011;22715;52.182;21.206;2022-10-31T02:47:36;20.75;;;12.40;;
36745;SDS011;22715;52.182;21.206;2022-10-31T02:52:51;19.00;;;12.98;;
36745;SDS011;22715;52.182;21.206;2022-10-31T02:58:12;20.75;;;14.00;;
36745;SDS011;22715;52.182;21.206;2022-10-31T03:03:28;18.33;;;13.30;;
36745;SDS011;22715;52.182;21.206;2022-10-31T03:06:07;20.23;;;14.60;;
36745;SDS011;22715;52.182;21.206;2022-10-31T03:08:35;24.00;;;14.88;;
36745;SDS011;22715;52.182;21.206;2022-10-31T03:11:08;23.73;;;13.95;;
36745;SDS011;22715;52.182;21.206;2022-10-31T03:18:53;18.63;;;13.10;;
36745;SDS011;22715;52.182;21.206;2022-10-31T03:21:25;18.13;;;13.35;;
36745;SDS011;22715;52.182;21.206;2022-10-31T03:23:52;23.50;;;13.60;;
36745;SDS011;22715;52.182;21.206;2022-10-31T03:26:19;21.42;;;13.77;;
36745;SDS011;22715;52.182;21.206;2022-10-31T03:28:48;20.88;;;13.23;;
36745;SDS011;22715;52.182;21.206;2022-10-31T03:31:15;22.02;;;12.88;;
36745;SDS011;22715;52.182;21.206;2022-10-31T03:33:48;23.95;;;14.35;;
36745;SDS011;22715;52.182;21.206;2022-10-31T03:38:44;19.45;;;13.52;;
36745;SDS011;22715;52.182;21.206;2022-10-31T03:41:12;26.05;;;14.80;;
36745;SDS011;22715;52.182;21.206;2022-10-31T03:43:42;34.70;;;16.08;;
36745;SDS011;22715;52.182;21.206;2022-10-31T03:46:14;22.65;;;15.27;;
36745;SDS011;22715;52.182;21.206;2022-10-31T03:48:39;28.35;;;16.55;;
36745;SDS011;22715;52.182;21.206;2022-10-31T03:54:13;37.67;;;20.45;;
36745;SDS011;22715;52.182;21.206;2022-10-31T03:56:53;41.38;;;21.67;;
36745;SDS011;22715;52.182;21.206;2022-10-31T04:01:51;42.78;;;22.95;;
36745;SDS011;22715;52.182;21.206;2022-10-31T04:04:22;38.97;;;21.35;;
36745;SDS011;22715;52.182;21.206;2022-10-31T04:06:48;37.10;;;21.55;;
36745;SDS011;22715;52.182;21.206;2022-10-31T04:09:15;37.28;;;22.13;;
36745;SDS011;22715;52.182;21.206;2022-10-31T04:11:42;32.20;;;20.33;;
36745;SDS011;22715;52.182;21.206;2022-10-31T04:14:10;35.03;;;21.73;;
36745;SDS011;22715;52.182;21.206;2022-10-31T04:16:39;38.60;;;21.33;;
36745;SDS011;22715;52.182;21.206;2022-10-31T04:19:06;33.38;;;18.10;;
36745;SDS011;22715;52.182;21.206;2022-10-31T04:21:46;31.40;;;17.13;;
36745;SDS011;22715;52.182;21.206;2022-10-31T04:24:13;34.70;;;19.57;;
36745;SDS011;22715;52.182;21.206;2022-10-31T04:29:14;28.27;;;18.25;;
36745;SDS011;22715;52.182;21.206;2022-10-31T04:31:39;32.22;;;19.98;;
36745;SDS011;22715;52.182;21.206;2022-10-31T04:34:05;31.98;;;19.33;;
36745;SDS011;22715;52.182;21.206;2022-10-31T04:36:35;31.70;;;18.63;;
36745;SDS011;22715;52.182;21.206;2022-10-31T04:39:02;31.88;;;20.73;;
36745;SDS011;22715;52.182;21.206;2022-10-31T04:41:31;31.25;;;19.40;;
36745;SDS011;22715;52.182;21.206;2022-10-31T04:44:03;30.45;;;18.52;;
36745;SDS011;22715;52.182;21.206;2022-10-31T04:46:35;29.42;;;17.27;;
36745;SDS011;22715;52.182;21.206;2022-10-31T04:49:01;35.45;;;18.90;;
36745;SDS011;22715;52.182;21.206;2022-10-31T04:51:36;27.60;;;17.42;;
36745;SDS011;22715;52.182;21.206;2022-10-31T04:54:02;28.42;;;16.83;;
36745;SDS011;22715;52.182;21.206;2022-10-31T04:56:30;29.60;;;16.70;;
36745;SDS011;22715;52.182;21.206;2022-10-31T04:58:56;30.15;;;18.60;;
36745;SDS011;22715;52.182;21.206;2022-10-31T05:01:24;32.70;;;20.60;;
36745;SDS011;22715;52.182;21.206;2022-10-31T05:03:49;32.45;;;20.55;;
36745;SDS011;22715;52.182;21.206;2022-10-31T05:06:15;29.38;;;17.73;;
36745;SDS011;22715;52.182;21.206;2022-10-31T05:08:41;28.75;;;17.75;;
36745;SDS011;22715;52.182;21.206;2022-10-31T05:11:07;29.30;;;17.55;;
36745;SDS011;22715;52.182;21.206;2022-10-31T05:13:32;29.38;;;16.40;;
36745;SDS011;22715;52.182;21.206;2022-10-31T05:15:58;29.58;;;16.40;;
36745;SDS011;22715;52.182;21.206;2022-10-31T05:18:23;25.67;;;15.98;;
36745;SDS011;22715;52.182;21.206;2022-10-31T05:23:23;21.20;;;15.15;;
36745;SDS011;22715;52.182;21.206;2022-10-31T05:28:24;23.98;;;16.02;;
36745;SDS011;22715;52.182;21.206;2022-10-31T05:30:49;21.55;;;14.30;;
36745;SDS011;22715;52.182;21.206;2022-10-31T05:33:15;28.67;;;16.52;;
36745;SDS011;22715;52.182;21.206;2022-10-31T05:35:40;28.33;;;16.55;;
36745;SDS011;22715;52.182;21.206;2022-10-31T05:38:06;24.63;;;16.30;;
36745;SDS011;22715;52.182;21.206;2022-10-31T05:40:31;27.45;;;16.80;;
36745;SDS011;22715;52.182;21.206;2022-10-31T05:42:56;30.58;;;21.15;;
36745;SDS011;22715;52.182;21.206;2022-10-31T05:45:24;30.95;;;19.90;;
36745;SDS011;22715;52.182;21.206;2022-10-31T05:47:52;26.25;;;15.93;;
36745;SDS011;22715;52.182;21.206;2022-10-31T05:50:18;29.83;;;18.55;;
36745;SDS011;22715;52.182;21.206;2022-10-31T05:52:43;35.58;;;21.70;;
36745;SDS011;22715;52.182;21.206;2022-10-31T05:55:09;79.28;;;44.20;;
36745;SDS011;22715;52.182;21.206;2022-10-31T05:57:34;169.57;;;98.22;;
36745;SDS011;22715;52.182;21.206;2022-10-31T05:59:59;204.25;;;123.45;;
36745;SDS011;22715;52.182;21.206;2022-10-31T06:02:25;198.98;;;125.13;;
36745;SDS011;22715;52.182;21.206;2022-10-31T06:04:51;190.63;;;115.65;;
36745;SDS011;22715;52.182;21.206;2022-10-31T06:07:17;54.83;;;36.97;;
36745;SDS011;22715;52.182;21.206;2022-10-31T06:09:42;37.08;;;22.55;;
36745;SDS011;22715;52.182;21.206;2022-10-31T06:12:09;46.17;;;31.38;;
36745;SDS011;22715;52.182;21.206;2022-10-31T06:14:35;25.40;;;15.73;;
36745;SDS011;22715;52.182;21.206;2022-10-31T06:17:00;21.85;;;14.20;;
36745;SDS011;22715;52.182;21.206;2022-10-31T06:19:26;29.60;;;17.27;;
36745;SDS011;22715;52.182;21.206;2022-10-31T06:21:51;31.05;;;20.10;;
36745;SDS011;22715;52.182;21.206;2022-10-31T06:24:17;26.85;;;18.42;;
36745;SDS011;22715;52.182;21.206;2022-10-31T06:26:43;26.73;;;15.93;;
36745;SDS011;22715;52.182;21.206;2022-10-31T06:29:08;27.45;;;16.33;;
36745;SDS011;22715;52.182;21.206;2022-10-31T06:31:34;25.88;;;14.52;;
36745;SDS011;22715;52.182;21.206;2022-10-31T06:33:59;23.52;;;14.18;;
36745;SDS011;22715;52.182;21.206;2022-10-31T06:36:24;19.90;;;12.63;;
36745;SDS011;22715;52.182;21.206;2022-10-31T06:38:50;22.48;;;15.63;;
36745;SDS011;22715;52.182;21.206;2022-10-31T06:41:15;22.65;;;14.40;;
36745;SDS011;22715;52.182;21.206;2022-10-31T06:43:41;17.48;;;13.10;;
36745;SDS011;22715;52.182;21.206;2022-10-31T06:46:06;22.20;;;13.45;;
36745;SDS011;22715;52.182;21.206;2022-10-31T06:48:32;24.25;;;13.50;;
36745;SDS011;22715;52.182;21.206;2022-10-31T06:51:03;18.35;;;13.73;;
36745;SDS011;22715;52.182;21.206;2022-10-31T06:53:28;20.73;;;13.77;;
36745;SDS011;22715;52.182;21.206;2022-10-31T06:55:56;18.75;;;14.30;;
36745;SDS011;22715;52.182;21.206;2022-10-31T06:58:22;23.63;;;14.40;;
36745;SDS011;22715;52.182;21.206;2022-10-31T07:00:47;16.52;;;12.82;;
36745;SDS011;22715;52.182;21.206;2022-10-31T08:27:55;17.40;;;12.98;;
36745;SDS011;22715;52.182;21.206;2022-10-31T08:30:21;22.45;;;13.95;;
36745;SDS011;22715;52.182;21.206;2022-10-31T08:32:47;23.70;;;12.82;;
36745;SDS011;22715;52.182;21.206;2022-10-31T08:35:16;17.98;;;13.30;;
36745;SDS011;22715;52.182;21.206;2022-10-31T08:37:44;19.75;;;13.52;;
36745;SDS011;22715;52.182;21.206;2022-10-31T08:40:12;19.42;;;12.68;;
36745;SDS011;22715;52.182;21.206;2022-10-31T08:42:57;18.70;;;11.80;;
36745;SDS011;22715;52.182;21.206;2022-10-31T08:45:23;19.83;;;12.70;;
36745;SDS011;22715;52.182;21.206;2022-10-31T08:47:48;16.88;;;12.52;;
36745;SDS011;22715;52.182;21.206;2022-10-31T09:01:03;16.35;;;10.27;;
36745;SDS011;22715;52.182;21.206;2022-10-31T09:03:31;18.40;;;12.93;;
36745;SDS011;22715;52.182;21.206;2022-10-31T09:06:03;17.23;;;12.00;;
36745;SDS011;22715;52.182;21.206;2022-10-31T09:08:31;23.17;;;12.68;;
36745;SDS011;22715;52.182;21.206;2022-10-31T09:10:57;18.92;;;12.18;;
36745;SDS011;22715;52.182;21.206;2022-10-31T09:16:14;18.50;;;13.20;;
36745;SDS011;22715;52.182;21.206;2022-10-31T09:18:39;23.23;;;14.00;;
36745;SDS011;22715;52.182;21.206;2022-10-31T09:21:04;22.40;;;15.35;;
36745;SDS011;22715;52.182;21.206;2022-10-31T10:16:37;19.83;;;13.90;;
36745;SDS011;22715;52.182;21.206;2022-10-31T10:24:03;19.00;;;13.00;;
36745;SDS011;22715;52.182;21.206;2022-10-31T10:26:37;20.60;;;13.30;;
36745;SDS011;22715;52.182;21.206;2022-10-31T10:31:44;20.35;;;15.25;;
36745;SDS011;22715;52.182;21.206;2022-10-31T10:34:28;18.48;;;13.73;;
36745;SDS011;22715;52.182;21.206;2022-10-31T10:37:00;19.92;;;14.25;;
36745;SDS011;22715;52.182;21.206;2022-10-31T10:39:29;16.15;;;13.80;;
36745;SDS011;22715;52.182;21.206;2022-10-31T10:41:54;17.42;;;11.90;;
36745;SDS011;22715;52.182;21.206;2022-10-31T10:44:40;18.67;;;12.80;;
36745;SDS011;22715;52.182;21.206;2022-10-31T10:47:26;19.98;;;13.70;;
36745;SDS011;22715;52.182;21.206;2022-10-31T10:50:19;19.15;;;12.70;;
36745;SDS011;22715;52.182;21.206;2022-10-31T10:52:53;21.02;;;12.25;;
36745;SDS011;22715;52.182;21.206;2022-10-31T10:57:52;15.93;;;11.25;;
36745;SDS011;22715;52.182;21.206;2022-10-31T11:02:45;17.60;;;11.68;;
36745;SDS011;22715;52.182;21.206;2022-10-31T11:07:48;17.00;;;11.52;;
36745;SDS011;22715;52.182;21.206;2022-10-31T11:10:14;14.25;;;9.82;;
36745;SDS011;22715;52.182;21.206;2022-10-31T11:12:40;18.48;;;11.38;;
36745;SDS011;22715;52.182;21.206;2022-10-31T11:15:08;16.10;;;11.35;;
36745;SDS011;22715;52.182;21.206;2022-10-31T11:17:41;17.33;;;12.25;;
36745;SDS011;22715;52.182;21.206;2022-10-31T11:22:39;15.23;;;11.05;;
36745;SDS011;22715;52.182;21.206;2022-10-31T11:28:03;15.27;;;11.32;;
36745;SDS011;22715;52.182;21.206;2022-10-31T11:30:29;15.40;;;11.43;;
36745;SDS011;22715;52.182;21.206;2022-10-31T11:32:55;18.88;;;12.30;;
36745;SDS011;22715;52.182;21.206;2022-10-31T11:35:21;16.02;;;11.93;;
36745;SDS011;22715;52.182;21.206;2022-10-31T11:37:47;18.20;;;12.15;;
36745;SDS011;22715;52.182;21.206;2022-10-31T11:40:31;13.48;;;11.10;;
36745;SDS011;22715;52.182;21.206;2022-10-31T11:42:57;17.02;;;10.63;;
36745;SDS011;22715;52.182;21.206;2022-10-31T11:45:31;11.48;;;9.93;;
36745;SDS011;22715;52.182;21.206;2022-10-31T11:47:58;14.18;;;11.05;;
36745;SDS011;22715;52.182;21.206;2022-10-31T11:50:35;15.45;;;11.73;;
36745;SDS011;22715;52.182;21.206;2022-10-31T11:53:01;12.18;;;10.27;;
36745;SDS011;22715;52.182;21.206;2022-10-31T11:55:31;12.38;;;9.82;;
36745;SDS011;22715;52.182;21.206;2022-10-31T11:57:59;13.63;;;9.25;;
36745;SDS011;22715;52.182;21.206;2022-10-31T12:00:26;14.60;;;10.52;;
36745;SDS011;22715;52.182;21.206;2022-10-31T12:03:01;11.93;;;9.05;;
36745;SDS011;22715;52.182;21.206;2022-10-31T12:05:29;13.43;;;10.15;;
36745;SDS011;22715;52.182;21.206;2022-10-31T12:07:57;13.65;;;8.23;;
36745;SDS011;22715;52.182;21.206;2022-10-31T12:10:24;10.52;;;8.77;;
36745;SDS011;22715;52.182;21.206;2022-10-31T12:15:32;13.30;;;9.40;;
36745;SDS011;22715;52.182;21.206;2022-10-31T12:25:45;13.95;;;10.57;;
36745;SDS011;22715;52.182;21.206;2022-10-31T12:41:00;18.23;;;9.32;;
36745;SDS011;22715;52.182;21.206;2022-10-31T12:43:50;17.45;;;10.00;;
36745;SDS011;22715;52.182;21.206;2022-10-31T12:46:38;14.73;;;10.65;;
36745;SDS011;22715;52.182;21.206;2022-10-31T12:49:23;19.95;;;9.95;;
36745;SDS011;22715;52.182;21.206;2022-10-31T13:00:03;18.08;;;10.55;;
36745;SDS011;22715;52.182;21.206;2022-10-31T13:02:35;11.85;;;8.50;;
36745;SDS011;22715;52.182;21.206;2022-10-31T13:07:38;13.07;;;8.15;;
36745;SDS011;22715;52.182;21.206;2022-10-31T13:10:14;14.02;;;8.93;;
36745;SDS011;22715;52.182;21.206;2022-10-31T13:12:40;12.18;;;7.82;;
36745;SDS011;22715;52.182;21.206;2022-10-31T13:15:18;10.15;;;7.57;;
36745;SDS011;22715;52.182;21.206;2022-10-31T13:17:45;9.68;;;8.02;;
36745;SDS011;22715;52.182;21.206;2022-10-31T13:22:40;13.75;;;10.02;;
36745;SDS011;22715;52.182;21.206;2022-10-31T13:25:18;11.23;;;7.82;;
36745;SDS011;22715;52.182;21.206;2022-10-31T13:27:58;12.80;;;10.43;;
36745;SDS011;22715;52.182;21.206;2022-10-31T13:30:25;16.38;;;12.23;;
36745;SDS011;22715;52.182;21.206;2022-10-31T13:33:03;18.63;;;11.50;;
36745;SDS011;22715;52.182;21.206;2022-10-31T13:38:27;13.38;;;9.85;;
36745;SDS011;22715;52.182;21.206;2022-10-31T13:45:53;16.10;;;10.07;;
36745;SDS011;22715;52.182;21.206;2022-10-31T13:48:31;13.13;;;10.07;;
36745;SDS011;22715;52.182;21.206;2022-10-31T13:50:59;15.65;;;10.13;;
36745;SDS011;22715;52.182;21.206;2022-10-31T13:53:35;11.60;;;9.20;;
36745;SDS011;22715;52.182;21.206;2022-10-31T14:01:28;15.63;;;10.18;;
36745;SDS011;22715;52.182;21.206;2022-10-31T14:04:14;13.40;;;9.35;;
36745;SDS011;22715;52.182;21.206;2022-10-31T14:30:27;15.35;;;11.20;;
36745;SDS011;22715;52.182;21.206;2022-10-31T14:32:53;15.38;;;11.32;;
36745;SDS011;22715;52.182;21.206;2022-10-31T14:35:20;20.52;;;14.55;;
36745;SDS011;22715;52.182;21.206;2022-10-31T14:37:59;15.43;;;10.48;;
36745;SDS011;22715;52.182;21.206;2022-10-31T14:40:39;15.63;;;11.32;;
36745;SDS011;22715;52.182;21.206;2022-10-31T14:51:23;12.73;;;9.32;;
36745;SDS011;22715;52.182;21.206;2022-10-31T14:53:50;15.52;;;9.60;;
36745;SDS011;22715;52.182;21.206;2022-10-31T14:56:19;12.23;;;9.45;;
36745;SDS011;22715;52.182;21.206;2022-10-31T14:58:47;15.55;;;10.38;;
36745;SDS011;22715;52.182;21.206;2022-10-31T15:01:28;15.10;;;10.40;;
36745;SDS011;22715;52.182;21.206;2022-10-31T15:04:02;15.23;;;9.57;;
36745;SDS011;22715;52.182;21.206;2022-10-31T15:06:47;19.42;;;11.85;;
36745;SDS011;22715;52.182;21.206;2022-10-31T15:09:23;15.68;;;10.38;;
36745;SDS011;22715;52.182;21.206;2022-10-31T15:11:49;15.65;;;11.25;;
36745;SDS011;22715;52.182;21.206;2022-10-31T15:14:20;17.67;;;11.93;;
36745;SDS011;22715;52.182;21.206;2022-10-31T15:16:46;16.83;;;12.63;;
36745;SDS011;22715;52.182;21.206;2022-10-31T15:19:13;23.17;;;15.27;;
36745;SDS011;22715;52.182;21.206;2022-10-31T15:21:42;20.85;;;14.93;;
36745;SDS011;22715;52.182;21.206;2022-10-31T15:24:12;31.00;;;15.68;;
36745;SDS011;22715;52.182;21.206;2022-10-31T15:26:40;22.67;;;16.13;;
36745;SDS011;22715;52.182;21.206;2022-10-31T15:29:16;22.00;;;15.20;;
36745;SDS011;22715;52.182;21.206;2022-10-31T15:31:51;24.48;;;14.98;;
36745;SDS011;22715;52.182;21.206;2022-10-31T15:34:19;23.27;;;15.07;;
36745;SDS011;22715;52.182;21.206;2022-10-31T15:36:48;26.77;;;15.85;;
36745;SDS011;22715;52.182;21.206;2022-10-31T15:39:17;28.55;;;17.30;;
36745;SDS011;22715;52.182;21.206;2022-10-31T15:41:54;23.95;;;16.88;;
36745;SDS011;22715;52.182;21.206;2022-10-31T15:44:30;27.83;;;16.60;;
36745;SDS011;22715;52.182;21.206;2022-10-31T15:47:04;26.27;;;17.60;;
36745;SDS011;22715;52.182;21.206;2022-10-31T15:54:55;25.92;;;15.55;;
36745;SDS011;22715;52.182;21.206;2022-10-31T15:57:23;25.30;;;15.88;;
36745;SDS011;22715;52.182;21.206;2022-10-31T15:59:48;24.67;;;15.65;;
36745;SDS011;22715;52.182;21.206;2022-10-31T16:02:17;22.83;;;14.85;;
36745;SDS011;22715;52.182;21.206;2022-10-31T16:04:50;24.27;;;15.07;;
36745;SDS011;22715;52.182;21.206;2022-10-31T16:07:17;27.25;;;17.15;;
36745;SDS011;22715;52.182;21.206;2022-10-31T16:09:50;30.75;;;16.13;;
36745;SDS011;22715;52.182;21.206;2022-10-31T16:12:15;27.42;;;16.63;;
36745;SDS011;22715;52.182;21.206;2022-10-31T16:14:41;29.17;;;17.42;;
36745;SDS011;22715;52.182;21.206;2022-10-31T16:17:10;25.48;;;18.88;;
36745;SDS011;22715;52.182;21.206;2022-10-31T16:19:36;27.55;;;17.73;;
36745;SDS011;22715;52.182;21.206;2022-10-31T16:22:06;26.45;;;17.98;;
36745;SDS011;22715;52.182;21.206;2022-10-31T16:27:19;38.15;;;23.23;;
36745;SDS011;22715;52.182;21.206;2022-10-31T16:29:58;43.10;;;23.10;;
36745;SDS011;22715;52.182;21.206;2022-10-31T16:32:33;44.85;;;25.40;;
36745;SDS011;22715;52.182;21.206;2022-10-31T16:42:58;67.13;;;31.02;;
36745;SDS011;22715;52.182;21.206;2022-10-31T16:48:19;57.85;;;29.15;;
36745;SDS011;22715;52.182;21.206;2022-10-31T17:39:50;75.63;;;34.50;;
36745;SDS011;22715;52.182;21.206;2022-10-31T17:42:15;82.13;;;35.78;;
36745;SDS011;22715;52.182;21.206;2022-10-31T17:44:41;87.40;;;36.03;;
36745;SDS011;22715;52.182;21.206;2022-10-31T17:47:06;83.40;;;36.53;;
36745;SDS011;22715;52.182;21.206;2022-10-31T17:49:33;80.43;;;36.50;;
36745;SDS011;22715;52.182;21.206;2022-10-31T17:51:59;78.95;;;37.00;;
36745;SDS011;22715;52.182;21.206;2022-10-31T17:54:24;81.35;;;38.40;;
36745;SDS011;22715;52.182;21.206;2022-10-31T17:56:51;81.25;;;37.08;;
36745;SDS011;22715;52.182;21.206;2022-10-31T17:59:17;76.65;;;34.72;;
36745;SDS011;22715;52.182;21.206;2022-10-31T18:01:42;77.57;;;38.67;;
36745;SDS011;22715;52.182;21.206;2022-10-31T18:04:08;84.28;;;39.13;;
36745;SDS011;22715;52.182;21.206;2022-10-31T18:06:33;75.20;;;37.30;;
36745;SDS011;22715;52.182;21.206;2022-10-31T18:09:01;72.70;;;36.33;;
36745;SDS011;22715;52.182;21.206;2022-10-31T18:11:26;80.40;;;38.25;;
36745;SDS011;22715;52.182;21.206;2022-10-31T18:16:52;89.63;;;37.83;;
36745;SDS011;22715;52.182;21.206;2022-10-31T18:19:18;80.95;;;39.25;;
36745;SDS011;22715;52.182;21.206;2022-10-31T18:21:46;79.20;;;36.95;;
36745;SDS011;22715;52.182;21.206;2022-10-31T18:24:11;91.18;;;40.10;;
36745;SDS011;22715;52.182;21.206;2022-10-31T18:26:37;97.80;;;43.20;;
36745;SDS011;22715;52.182;21.206;2022-10-31T18:29:03;96.57;;;40.55;;
36745;SDS011;22715;52.182;21.206;2022-10-31T18:31:28;85.18;;;40.05;;
36745;SDS011;22715;52.182;21.206;2022-10-31T18:33:55;96.90;;;42.00;;
36745;SDS011;22715;52.182;21.206;2022-10-31T18:36:21;87.30;;;40.35;;
36745;SDS011;22715;52.182;21.206;2022-10-31T18:38:46;87.65;;;39.70;;
36745;SDS011;22715;52.182;21.206;2022-10-31T18:41:12;83.38;;;38.45;;
36745;SDS011;22715;52.182;21.206;2022-10-31T18:43:38;88.45;;;40.67;;
36745;SDS011;22715;52.182;21.206;2022-10-31T18:46:05;90.32;;;38.78;;
36745;SDS011;22715;52.182;21.206;2022-10-31T18:48:31;82.22;;;36.85;;
36745;SDS011;22715;52.182;21.206;2022-10-31T18:51:06;78.45;;;38.72;;
36745;SDS011;22715;52.182;21.206;2022-10-31T18:53:38;84.15;;;40.60;;
36745;SDS011;22715;52.182;21.206;2022-10-31T18:56:08;89.65;;;38.65;;
36745;SDS011;22715;52.182;21.206;2022-10-31T18:58:33;85.93;;;38.95;;
36745;SDS011;22715;52.182;21.206;2022-10-31T19:00:58;84.55;;;37.88;;
36745;SDS011;22715;52.182;21.206;2022-10-31T19:03:24;81.85;;;39.00;;
36745;SDS011;22715;52.182;21.206;2022-10-31T19:06:03;86.65;;;41.28;;
36745;SDS011;22715;52.182;21.206;2022-10-31T19:08:38;77.82;;;37.90;;
36745;SDS011;22715;52.182;21.206;2022-10-31T19:11:04;82.90;;;39.65;;
36745;SDS011;22715;52.182;21.206;2022-10-31T19:13:30;85.53;;;40.58;;
36745;SDS011;22715;52.182;21.206;2022-10-31T19:16:01;80.25;;;39.50;;
36745;SDS011;22715;52.182;21.206;2022-10-31T19:18:27;86.53;;;39.70;;
36745;SDS011;22715;52.182;21.206;2022-10-31T19:20:58;86.22;;;39.75;;
36745;SDS011;22715;52.182;21.206;2022-10-31T19:23:35;85.43;;;41.17;;
36745;SDS011;22715;52.182;21.206;2022-10-31T19:26:08;86.60;;;39.10;;
36745;SDS011;22715;52.182;21.206;2022-10-31T19:28:34;85.05;;;39.40;;
36745;SDS011;22715;52.182;21.206;2022-10-31T19:31:03;81.57;;;40.75;;
36745;SDS011;22715;52.182;21.206;2022-10-31T19:33:40;81.03;;;39.50;;
36745;SDS011;22715;52.182;21.206;2022-10-31T19:36:23;80.60;;;38.22;;
36745;SDS011;22715;52.182;21.206;2022-10-31T19:41:46;87.47;;;40.92;;
36745;SDS011;22715;52.182;21.206;2022-10-31T19:44:15;84.50;;;42.00;;
36745;SDS011;22715;52.182;21.206;2022-10-31T19:46:43;89.43;;;40.00;;
36745;SDS011;22715;52.182;21.206;2022-10-31T19:49:14;80.90;;;40.10;;
36745;SDS011;22715;52.182;21.206;2022-10-31T19:51:42;80.45;;;40.47;;
36745;SDS011;22715;52.182;21.206;2022-10-31T19:54:09;94.38;;;42.35;;
36745;SDS011;22715;52.182;21.206;2022-10-31T19:56:38;80.15;;;40.92;;
36745;SDS011;22715;52.182;21.206;2022-10-31T19:59:06;87.97;;;42.72;;
36745;SDS011;22715;52.182;21.206;2022-10-31T20:01:32;82.15;;;39.38;;
36745;SDS011;22715;52.182;21.206;2022-10-31T20:03:57;86.95;;;39.22;;
36745;SDS011;22715;52.182;21.206;2022-10-31T20:06:24;81.97;;;41.30;;
36745;SDS011;22715;52.182;21.206;2022-10-31T20:08:51;73.25;;;38.83;;
36745;SDS011;22715;52.182;21.206;2022-10-31T20:11:16;89.65;;;40.42;;
36745;SDS011;22715;52.182;21.206;2022-10-31T20:13:42;77.50;;;38.97;;
36745;SDS011;22715;52.182;21.206;2022-10-31T20:16:11;87.13;;;37.47;;
36745;SDS011;22715;52.182;21.206;2022-10-31T20:18:40;78.80;;;38.63;;
36745;SDS011;22715;52.182;21.206;2022-10-31T20:21:09;88.97;;;42.05;;
36745;SDS011;22715;52.182;21.206;2022-10-31T20:23:35;85.55;;;38.88;;
36745;SDS011;22715;52.182;21.206;2022-10-31T20:26:04;84.70;;;38.83;;
36745;SDS011;22715;52.182;21.206;2022-10-31T20:28:29;87.07;;;43.05;;
36745;SDS011;22715;52.182;21.206;2022-10-31T20:30:55;82.93;;;39.55;;
36745;SDS011;22715;52.182;21.206;2022-10-31T20:33:23;87.70;;;40.60;;
36745;SDS011;22715;52.182;21.206;2022-10-31T20:35:48;81.47;;;41.55;;
36745;SDS011;22715;52.182;21.206;2022-10-31T20:38:17;85.25;;;39.35;;
36745;SDS011;22715;52.182;21.206;2022-10-31T20:40:44;99.70;;;43.80;;
36745;SDS011;22715;52.182;21.206;2022-10-31T20:43:10;79.65;;;38.75;;
36745;SDS011;22715;52.182;21.206;2022-10-31T20:45:40;88.82;;;40.50;;
36745;SDS011;22715;52.182;21.206;2022-10-31T20:48:13;79.88;;;35.08;;
36745;SDS011;22715;52.182;21.206;2022-10-31T20:56:30;77.90;;;36.85;;
36745;SDS011;22715;52.182;21.206;2022-10-31T20:59:00;82.95;;;38.45;;
36745;SDS011;22715;52.182;21.206;2022-10-31T21:04:35;66.57;;;31.95;;
36745;SDS011;22715;52.182;21.206;2022-10-31T21:07:07;76.78;;;34.92;;
36745;SDS011;22715;52.182;21.206;2022-10-31T21:09:46;66.85;;;31.27;;
36745;SDS011;22715;52.182;21.206;2022-10-31T21:12:16;63.28;;;29.63;;
36745;SDS011;22715;52.182;21.206;2022-10-31T21:14:55;61.15;;;31.05;;
36745;SDS011;22715;52.182;21.206;2022-10-31T21:17:21;74.87;;;34.43;;
36745;SDS011;22715;52.182;21.206;2022-10-31T21:19:47;76.13;;;33.33;;
36745;SDS011;22715;52.182;21.206;2022-10-31T21:22:12;65.32;;;34.03;;
36745;SDS011;22715;52.182;21.206;2022-10-31T21:24:38;78.13;;;35.47;;
36745;SDS011;22715;52.182;21.206;2022-10-31T21:27:05;61.20;;;32.95;;
36745;SDS011;22715;52.182;21.206;2022-10-31T21:29:31;74.32;;;35.95;;
36745;SDS011;22715;52.182;21.206;2022-10-31T21:31:57;74.55;;;33.03;;
36745;SDS011;22715;52.182;21.206;2022-10-31T21:34:22;70.18;;;32.78;;
36745;SDS011;22715;52.182;21.206;2022-10-31T21:36:48;64.88;;;37.03;;
36745;SDS011;22715;52.182;21.206;2022-10-31T21:39:15;62.17;;;33.85;;
36745;SDS011;22715;52.182;21.206;2022-10-31T21:41:40;70.88;;;36.72;;
36745;SDS011;22715;52.182;21.206;2022-10-31T21:44:05;74.28;;;38.28;;
36745;SDS011;22715;52.182;21.206;2022-10-31T21:46:31;65.22;;;34.53;;
36745;SDS011;22715;52.182;21.206;2022-10-31T21:48:57;72.18;;;34.88;;
36745;SDS011;22715;52.182;21.206;2022-10-31T21:51:24;72.30;;;37.95;;
36745;SDS011;22715;52.182;21.206;2022-10-31T21:53:50;71.55;;;35.40;;
36745;SDS011;22715;52.182;21.206;2022-10-31T21:56:37;71.45;;;33.10;;
36745;SDS011;22715;52.182;21.206;2022-10-31T22:08:18;71.45;;;33.70;;
36745;SDS011;22715;52.182;21.206;2022-10-31T22:13:17;77.40;;;34.58;;
36745;SDS011;22715;52.182;21.206;2022-10-31T22:15:43;68.35;;;34.30;;
36745;SDS011;22715;52.182;21.206;2022-10-31T22:18:10;83.50;;;37.95;;
36745;SDS011;22715;52.182;21.206;2022-10-31T22:20:36;69.18;;;33.92;;
36745;SDS011;22715;52.182;21.206;2022-10-31T22:23:05;66.43;;;34.20;;
36745;SDS011;22715;52.182;21.206;2022-10-31T22:25:34;66.53;;;33.58;;
36745;SDS011;22715;52.182;21.206;2022-10-31T22:28:00;65.00;;;29.60;;
36745;SDS011;22715;52.182;21.206;2022-10-31T22:30:36;69.72;;;34.67;;
36745;SDS011;22715;52.182;21.206;2022-10-31T22:33:04;74.90;;;34.55;;
36745;SDS011;22715;52.182;21.206;2022-10-31T22:35:32;72.13;;;33.40;;
36745;SDS011;22715;52.182;21.206;2022-10-31T22:37:58;59.67;;;34.35;;
36745;SDS011;22715;52.182;21.206;2022-10-31T22:40:24;74.90;;;33.35;;
36745;SDS011;22715;52.182;21.206;2022-10-31T22:42:52;76.38;;;35.65;;
36745;SDS011;22715;52.182;21.206;2022-10-31T22:45:18;75.53;;;35.05;;
36745;SDS011;22715;52.182;21.206;2022-10-31T22:47:49;79.22;;;36.75;;
36745;SDS011;22715;52.182;21.206;2022-10-31T22:50:24;77.55;;;35.03;;
36745;SDS011;22715;52.182;21.206;2022-10-31T22:53:02;69.07;;;35.80;;
36745;SDS011;22715;52.182;21.206;2022-10-31T22:55:33;77.50;;;31.10;;